Murray, Nebraska
Current Conditions -  °F | °C
As of 11:55 PM on Wednesday 22 Oct 2014 (Local Time) from KPMV Reporting Station
Haze Haze  
Wind Chill: 61°   Ceiling: 2800
Heat Index: 61°   Visibility: 4mi
Dew Point: 60°   Wind: 5mph
Humidity: 94%   Direction: 140°SE
Pressure: 30.06"   Gusts: NA
Location:  40.92°N, 95.93°W
Report Text: KPMV 230455Z AUTO 14004KT 4SM BR SCT010 BKN028 OVC110 16/15 A3006 RMK AO2 P0001 T01630153
Loading
Personal Weather Stations






























Interactive Weather Map
Tropical Storm Tracking
New forecast layout! Learn more

10-Day Weather Forecast

Advertisements
Track Severe Weather on mobile